sensor_id;sensor_type;location;lat;lon;timestamp;P1;durP1;ratioP1;P2;durP2;ratioP2
44046;SDS011;29713;-33.888;151.150;2023-05-14T00:01:14;2.95;;;1.98;;
44046;SDS011;29713;-33.888;151.150;2023-05-14T00:03:41;2.45;;;1.98;;
44046;SDS011;29713;-33.888;151.150;2023-05-14T00:06:09;3.83;;;2.10;;
44046;SDS011;29713;-33.888;151.150;2023-05-14T00:08:36;2.58;;;2.08;;
44046;SDS011;29713;-33.888;151.150;2023-05-14T00:11:03;2.42;;;1.95;;
44046;SDS011;29713;-33.888;151.150;2023-05-14T00:13:33;3.47;;;1.90;;
44046;SDS011;29713;-33.888;151.150;2023-05-14T00:16:01;3.47;;;1.80;;
44046;SDS011;29713;-33.888;151.150;2023-05-14T00:18:28;4.15;;;1.90;;
44046;SDS011;29713;-33.888;151.150;2023-05-14T00:20:56;3.50;;;1.52;;
44046;SDS011;29713;-33.888;151.150;2023-05-14T00:23:23;2.25;;;1.60;;
44046;SDS011;29713;-33.888;151.150;2023-05-14T00:25:50;2.15;;;1.25;;
44046;SDS011;29713;-33.888;151.150;2023-05-14T00:28:18;2.40;;;1.60;;
44046;SDS011;29713;-33.888;151.150;2023-05-14T00:30:46;1.67;;;1.08;;
44046;SDS011;29713;-33.888;151.150;2023-05-14T00:33:13;1.27;;;1.10;;
44046;SDS011;29713;-33.888;151.150;2023-05-14T00:35:40;2.25;;;1.25;;
44046;SDS011;29713;-33.888;151.150;2023-05-14T00:38:08;1.73;;;1.20;;
44046;SDS011;29713;-33.888;151.150;2023-05-14T00:40:41;1.98;;;1.20;;
44046;SDS011;29713;-33.888;151.150;2023-05-14T00:43:10;1.80;;;1.20;;
44046;SDS011;29713;-33.888;151.150;2023-05-14T00:45:38;3.55;;;1.50;;
44046;SDS011;29713;-33.888;151.150;2023-05-14T00:48:05;2.05;;;1.40;;
44046;SDS011;29713;-33.888;151.150;2023-05-14T00:50:33;2.20;;;1.48;;
44046;SDS011;29713;-33.888;151.150;2023-05-14T00:53:00;2.00;;;1.23;;
44046;SDS011;29713;-33.888;151.150;2023-05-14T00:55:35;1.40;;;1.17;;
44046;SDS011;29713;-33.888;151.150;2023-05-14T00:58:06;2.95;;;1.10;;
44046;SDS011;29713;-33.888;151.150;2023-05-14T01:00:37;2.25;;;1.35;;
44046;SDS011;29713;-33.888;151.150;2023-05-14T01:03:06;3.47;;;1.42;;
44046;SDS011;29713;-33.888;151.150;2023-05-14T01:12:04;1.25;;;0.70;;
44046;SDS011;29713;-33.888;151.150;2023-05-14T01:14:29;2.08;;;0.80;;
44046;SDS011;29713;-33.888;151.150;2023-05-14T01:17:03;1.88;;;0.80;;
44046;SDS011;29713;-33.888;151.150;2023-05-14T01:22:07;6.00;;;1.20;;
44046;SDS011;29713;-33.888;151.150;2023-05-14T01:24:35;4.35;;;0.90;;
44046;SDS011;29713;-33.888;151.150;2023-05-14T01:27:06;1.90;;;0.90;;
44046;SDS011;29713;-33.888;151.150;2023-05-14T01:32:47;5.72;;;1.17;;
44046;SDS011;29713;-33.888;151.150;2023-05-14T01:35:19;2.60;;;1.25;;
44046;SDS011;29713;-33.888;151.150;2023-05-14T01:37:50;3.42;;;0.95;;
44046;SDS011;29713;-33.888;151.150;2023-05-14T01:40:22;2.25;;;1.27;;
44046;SDS011;29713;-33.888;151.150;2023-05-14T01:42:50;4.10;;;1.13;;
44046;SDS011;29713;-33.888;151.150;2023-05-14T01:45:19;3.25;;;1.40;;
44046;SDS011;29713;-33.888;151.150;2023-05-14T01:47:47;2.60;;;1.10;;
44046;SDS011;29713;-33.888;151.150;2023-05-14T01:50:15;3.42;;;1.05;;
44046;SDS011;29713;-33.888;151.150;2023-05-14T01:52:42;2.70;;;0.93;;
44046;SDS011;29713;-33.888;151.150;2023-05-14T01:55:10;1.50;;;0.77;;
44046;SDS011;29713;-33.888;151.150;2023-05-14T01:57:37;4.65;;;1.00;;
44046;SDS011;29713;-33.888;151.150;2023-05-14T02:00:05;2.20;;;0.90;;
44046;SDS011;29713;-33.888;151.150;2023-05-14T02:02:33;3.78;;;0.90;;
44046;SDS011;29713;-33.888;151.150;2023-05-14T02:05:03;4.00;;;1.33;;
44046;SDS011;29713;-33.888;151.150;2023-05-14T02:07:31;4.20;;;1.30;;
44046;SDS011;29713;-33.888;151.150;2023-05-14T02:10:01;3.70;;;0.90;;
44046;SDS011;29713;-33.888;151.150;2023-05-14T02:12:29;3.78;;;1.00;;
44046;SDS011;29713;-33.888;151.150;2023-05-14T02:14:56;2.83;;;0.73;;
44046;SDS011;29713;-33.888;151.150;2023-05-14T02:17:24;2.88;;;1.00;;
44046;SDS011;29713;-33.888;151.150;2023-05-14T02:19:52;1.98;;;0.85;;
44046;SDS011;29713;-33.888;151.150;2023-05-14T02:22:19;2.35;;;0.90;;
44046;SDS011;29713;-33.888;151.150;2023-05-14T02:24:47;1.20;;;0.90;;
44046;SDS011;29713;-33.888;151.150;2023-05-14T02:27:15;4.03;;;1.00;;
44046;SDS011;29713;-33.888;151.150;2023-05-14T02:29:43;2.85;;;1.02;;
44046;SDS011;29713;-33.888;151.150;2023-05-14T02:32:10;3.35;;;1.35;;
44046;SDS011;29713;-33.888;151.150;2023-05-14T02:34:38;2.63;;;1.20;;
44046;SDS011;29713;-33.888;151.150;2023-05-14T02:37:05;3.42;;;1.15;;
44046;SDS011;29713;-33.888;151.150;2023-05-14T02:39:32;5.18;;;1.13;;
44046;SDS011;29713;-33.888;151.150;2023-05-14T02:42:00;3.47;;;1.27;;
44046;SDS011;29713;-33.888;151.150;2023-05-14T02:44:27;2.47;;;1.13;;
44046;SDS011;29713;-33.888;151.150;2023-05-14T02:46:56;1.77;;;0.98;;
44046;SDS011;29713;-33.888;151.150;2023-05-14T02:49:23;3.10;;;1.02;;
44046;SDS011;29713;-33.888;151.150;2023-05-14T02:51:51;2.67;;;1.15;;
44046;SDS011;29713;-33.888;151.150;2023-05-14T02:54:21;2.45;;;1.17;;
44046;SDS011;29713;-33.888;151.150;2023-05-14T02:56:48;2.35;;;1.10;;
44046;SDS011;29713;-33.888;151.150;2023-05-14T02:59:15;2.60;;;1.08;;
44046;SDS011;29713;-33.888;151.150;2023-05-14T03:01:43;3.08;;;1.15;;
44046;SDS011;29713;-33.888;151.150;2023-05-14T03:04:10;0.93;;;0.82;;
44046;SDS011;29713;-33.888;151.150;2023-05-14T03:06:37;5.15;;;1.08;;
44046;SDS011;29713;-33.888;151.150;2023-05-14T03:09:05;2.50;;;1.00;;
44046;SDS011;29713;-33.888;151.150;2023-05-14T03:11:32;3.97;;;0.90;;
44046;SDS011;29713;-33.888;151.150;2023-05-14T03:13:59;2.78;;;1.67;;
44046;SDS011;29713;-33.888;151.150;2023-05-14T03:16:27;4.93;;;1.48;;
44046;SDS011;29713;-33.888;151.150;2023-05-14T03:18:54;3.17;;;1.05;;
44046;SDS011;29713;-33.888;151.150;2023-05-14T03:21:22;4.10;;;1.10;;
44046;SDS011;29713;-33.888;151.150;2023-05-14T03:23:50;4.57;;;2.63;;
44046;SDS011;29713;-33.888;151.150;2023-05-14T03:26:18;4.68;;;2.70;;
44046;SDS011;29713;-33.888;151.150;2023-05-14T03:28:46;3.97;;;1.60;;
44046;SDS011;29713;-33.888;151.150;2023-05-14T03:31:13;6.22;;;1.90;;
44046;SDS011;29713;-33.888;151.150;2023-05-14T03:33:41;3.30;;;1.33;;
44046;SDS011;29713;-33.888;151.150;2023-05-14T03:36:08;3.70;;;1.30;;
44046;SDS011;29713;-33.888;151.150;2023-05-14T03:38:35;5.78;;;1.73;;
44046;SDS011;29713;-33.888;151.150;2023-05-14T03:41:03;3.33;;;1.50;;
44046;SDS011;29713;-33.888;151.150;2023-05-14T03:43:30;2.55;;;1.45;;
44046;SDS011;29713;-33.888;151.150;2023-05-14T03:45:57;3.97;;;1.35;;
44046;SDS011;29713;-33.888;151.150;2023-05-14T03:48:25;3.63;;;1.30;;
44046;SDS011;29713;-33.888;151.150;2023-05-14T03:50:52;2.90;;;1.30;;
44046;SDS011;29713;-33.888;151.150;2023-05-14T03:53:19;4.82;;;1.55;;
44046;SDS011;29713;-33.888;151.150;2023-05-14T03:55:47;5.18;;;1.60;;
44046;SDS011;29713;-33.888;151.150;2023-05-14T03:58:14;3.78;;;1.80;;
44046;SDS011;29713;-33.888;151.150;2023-05-14T04:00:42;3.08;;;1.65;;
44046;SDS011;29713;-33.888;151.150;2023-05-14T04:03:09;3.50;;;1.10;;
44046;SDS011;29713;-33.888;151.150;2023-05-14T04:05:36;3.38;;;1.10;;
44046;SDS011;29713;-33.888;151.150;2023-05-14T04:08:04;2.95;;;1.70;;
44046;SDS011;29713;-33.888;151.150;2023-05-14T04:10:31;5.20;;;1.30;;
44046;SDS011;29713;-33.888;151.150;2023-05-14T04:12:58;6.32;;;1.13;;
44046;SDS011;29713;-33.888;151.150;2023-05-14T04:15:26;5.10;;;1.40;;
44046;SDS011;29713;-33.888;151.150;2023-05-14T04:17:53;2.78;;;1.00;;
44046;SDS011;29713;-33.888;151.150;2023-05-14T04:20:20;3.22;;;1.20;;
44046;SDS011;29713;-33.888;151.150;2023-05-14T04:22:50;1.88;;;0.95;;
44046;SDS011;29713;-33.888;151.150;2023-05-14T04:25:19;1.55;;;0.85;;
44046;SDS011;29713;-33.888;151.150;2023-05-14T04:27:46;7.07;;;1.58;;
44046;SDS011;29713;-33.888;151.150;2023-05-14T04:30:13;1.60;;;1.05;;
44046;SDS011;29713;-33.888;151.150;2023-05-14T04:32:41;3.42;;;1.35;;
44046;SDS011;29713;-33.888;151.150;2023-05-14T04:35:08;3.35;;;1.20;;
44046;SDS011;29713;-33.888;151.150;2023-05-14T04:37:37;1.83;;;1.10;;
44046;SDS011;29713;-33.888;151.150;2023-05-14T04:40:05;2.67;;;1.05;;
44046;SDS011;29713;-33.888;151.150;2023-05-14T04:42:35;3.25;;;0.80;;
44046;SDS011;29713;-33.888;151.150;2023-05-14T04:45:04;1.73;;;0.80;;
44046;SDS011;29713;-33.888;151.150;2023-05-14T04:47:31;2.63;;;0.60;;
44046;SDS011;29713;-33.888;151.150;2023-05-14T04:49:59;5.45;;;0.80;;
44046;SDS011;29713;-33.888;151.150;2023-05-14T04:52:27;1.92;;;0.70;;
44046;SDS011;29713;-33.888;151.150;2023-05-14T04:54:54;1.25;;;0.52;;
44046;SDS011;29713;-33.888;151.150;2023-05-14T04:57:21;2.03;;;0.40;;
44046;SDS011;29713;-33.888;151.150;2023-05-14T04:59:49;2.25;;;0.73;;
44046;SDS011;29713;-33.888;151.150;2023-05-14T05:02:16;2.38;;;0.73;;
44046;SDS011;29713;-33.888;151.150;2023-05-14T05:04:44;5.05;;;1.00;;
44046;SDS011;29713;-33.888;151.150;2023-05-14T05:07:11;1.33;;;0.82;;
44046;SDS011;29713;-33.888;151.150;2023-05-14T05:09:39;4.18;;;0.65;;
44046;SDS011;29713;-33.888;151.150;2023-05-14T05:12:07;1.38;;;0.80;;
44046;SDS011;29713;-33.888;151.150;2023-05-14T05:14:35;3.65;;;0.90;;
44046;SDS011;29713;-33.888;151.150;2023-05-14T05:17:05;2.17;;;1.15;;
44046;SDS011;29713;-33.888;151.150;2023-05-14T05:19:33;4.53;;;0.80;;
44046;SDS011;29713;-33.888;151.150;2023-05-14T05:22:00;1.10;;;0.65;;
44046;SDS011;29713;-33.888;151.150;2023-05-14T05:24:27;2.35;;;0.80;;
44046;SDS011;29713;-33.888;151.150;2023-05-14T05:26:54;3.13;;;1.15;;
44046;SDS011;29713;-33.888;151.150;2023-05-14T05:29:22;2.88;;;0.90;;
44046;SDS011;29713;-33.888;151.150;2023-05-14T05:31:49;1.67;;;0.60;;
44046;SDS011;29713;-33.888;151.150;2023-05-14T05:34:17;2.67;;;0.73;;
44046;SDS011;29713;-33.888;151.150;2023-05-14T05:36:45;1.63;;;0.77;;
44046;SDS011;29713;-33.888;151.150;2023-05-14T05:39:12;2.58;;;1.05;;
44046;SDS011;29713;-33.888;151.150;2023-05-14T05:41:39;3.13;;;1.00;;
44046;SDS011;29713;-33.888;151.150;2023-05-14T05:44:08;1.42;;;0.60;;
44046;SDS011;29713;-33.888;151.150;2023-05-14T05:46:35;3.10;;;1.00;;
44046;SDS011;29713;-33.888;151.150;2023-05-14T05:49:02;1.65;;;0.60;;
44046;SDS011;29713;-33.888;151.150;2023-05-14T05:51:30;2.83;;;0.75;;
44046;SDS011;29713;-33.888;151.150;2023-05-14T05:53:57;2.97;;;0.70;;
44046;SDS011;29713;-33.888;151.150;2023-05-14T05:56:25;2.20;;;0.77;;
44046;SDS011;29713;-33.888;151.150;2023-05-14T05:58:52;3.72;;;0.70;;
44046;SDS011;29713;-33.888;151.150;2023-05-14T06:01:19;6.90;;;1.30;;
44046;SDS011;29713;-33.888;151.150;2023-05-14T06:03:47;1.25;;;0.57;;
44046;SDS011;29713;-33.888;151.150;2023-05-14T06:06:14;1.60;;;0.60;;
44046;SDS011;29713;-33.888;151.150;2023-05-14T06:08:41;2.42;;;0.70;;
44046;SDS011;29713;-33.888;151.150;2023-05-14T06:11:09;2.30;;;0.90;;
44046;SDS011;29713;-33.888;151.150;2023-05-14T06:13:36;2.20;;;0.80;;
44046;SDS011;29713;-33.888;151.150;2023-05-14T06:16:03;2.30;;;0.52;;
44046;SDS011;29713;-33.888;151.150;2023-05-14T06:18:31;1.88;;;0.50;;
44046;SDS011;29713;-33.888;151.150;2023-05-14T06:20:58;2.30;;;0.50;;
44046;SDS011;29713;-33.888;151.150;2023-05-14T06:23:26;2.95;;;0.50;;
44046;SDS011;29713;-33.888;151.150;2023-05-14T06:25:53;1.90;;;0.57;;
44046;SDS011;29713;-33.888;151.150;2023-05-14T06:28:20;1.33;;;0.57;;
44046;SDS011;29713;-33.888;151.150;2023-05-14T06:30:48;3.20;;;0.57;;
44046;SDS011;29713;-33.888;151.150;2023-05-14T06:33:16;0.75;;;0.52;;
44046;SDS011;29713;-33.888;151.150;2023-05-14T06:35:43;2.50;;;0.65;;
44046;SDS011;29713;-33.888;151.150;2023-05-14T06:38:10;2.63;;;0.75;;
44046;SDS011;29713;-33.888;151.150;2023-05-14T06:40:38;2.33;;;0.80;;
44046;SDS011;29713;-33.888;151.150;2023-05-14T06:43:05;2.53;;;1.10;;
44046;SDS011;29713;-33.888;151.150;2023-05-14T06:45:32;5.05;;;1.38;;
44046;SDS011;29713;-33.888;151.150;2023-05-14T06:48:00;1.52;;;0.75;;
44046;SDS011;29713;-33.888;151.150;2023-05-14T06:50:27;4.70;;;1.30;;
44046;SDS011;29713;-33.888;151.150;2023-05-14T06:52:55;14.05;;;7.82;;
44046;SDS011;29713;-33.888;151.150;2023-05-14T06:55:22;9.80;;;6.78;;
44046;SDS011;29713;-33.888;151.150;2023-05-14T06:57:50;12.02;;;9.15;;
44046;SDS011;29713;-33.888;151.150;2023-05-14T07:00:17;18.05;;;6.03;;
44046;SDS011;29713;-33.888;151.150;2023-05-14T07:02:45;7.20;;;3.85;;
44046;SDS011;29713;-33.888;151.150;2023-05-14T07:05:12;6.63;;;4.22;;
44046;SDS011;29713;-33.888;151.150;2023-05-14T07:07:40;12.90;;;7.85;;
44046;SDS011;29713;-33.888;151.150;2023-05-14T07:10:07;7.95;;;4.80;;
44046;SDS011;29713;-33.888;151.150;2023-05-14T07:12:34;5.43;;;2.80;;
44046;SDS011;29713;-33.888;151.150;2023-05-14T07:15:02;4.25;;;2.60;;
44046;SDS011;29713;-33.888;151.150;2023-05-14T07:17:29;5.80;;;1.92;;
44046;SDS011;29713;-33.888;151.150;2023-05-14T07:19:57;2.67;;;1.38;;
44046;SDS011;29713;-33.888;151.150;2023-05-14T07:22:24;5.28;;;1.48;;
44046;SDS011;29713;-33.888;151.150;2023-05-14T07:24:51;3.33;;;1.17;;
44046;SDS011;29713;-33.888;151.150;2023-05-14T07:27:19;3.05;;;1.10;;
44046;SDS011;29713;-33.888;151.150;2023-05-14T07:29:46;4.07;;;1.30;;
44046;SDS011;29713;-33.888;151.150;2023-05-14T07:32:14;1.30;;;1.00;;
44046;SDS011;29713;-33.888;151.150;2023-05-14T07:34:42;5.28;;;1.17;;
44046;SDS011;29713;-33.888;151.150;2023-05-14T07:37:09;5.93;;;1.58;;
44046;SDS011;29713;-33.888;151.150;2023-05-14T07:39:36;3.85;;;1.48;;
44046;SDS011;29713;-33.888;151.150;2023-05-14T07:42:06;3.53;;;1.70;;
44046;SDS011;29713;-33.888;151.150;2023-05-14T07:44:33;4.18;;;1.40;;
44046;SDS011;29713;-33.888;151.150;2023-05-14T07:47:00;2.45;;;1.50;;
44046;SDS011;29713;-33.888;151.150;2023-05-14T07:49:28;3.88;;;1.60;;
44046;SDS011;29713;-33.888;151.150;2023-05-14T07:51:56;4.10;;;1.60;;
44046;SDS011;29713;-33.888;151.150;2023-05-14T07:54:23;3.35;;;1.83;;
44046;SDS011;29713;-33.888;151.150;2023-05-14T07:56:50;4.32;;;1.90;;
44046;SDS011;29713;-33.888;151.150;2023-05-14T07:59:18;4.85;;;1.90;;
44046;SDS011;29713;-33.888;151.150;2023-05-14T08:01:45;7.72;;;2.10;;
44046;SDS011;29713;-33.888;151.150;2023-05-14T08:04:13;4.85;;;1.80;;
44046;SDS011;29713;-33.888;151.150;2023-05-14T08:06:40;4.72;;;2.08;;
44046;SDS011;29713;-33.888;151.150;2023-05-14T08:09:08;6.05;;;3.13;;
44046;SDS011;29713;-33.888;151.150;2023-05-14T08:11:35;5.03;;;2.20;;
44046;SDS011;29713;-33.888;151.150;2023-05-14T08:14:03;4.68;;;2.55;;
44046;SDS011;29713;-33.888;151.150;2023-05-14T08:16:31;3.20;;;2.30;;
44046;SDS011;29713;-33.888;151.150;2023-05-14T08:18:58;5.63;;;2.70;;
44046;SDS011;29713;-33.888;151.150;2023-05-14T08:21:26;5.70;;;2.53;;
44046;SDS011;29713;-33.888;151.150;2023-05-14T08:23:53;8.55;;;3.13;;
44046;SDS011;29713;-33.888;151.150;2023-05-14T08:26:20;4.90;;;3.53;;
44046;SDS011;29713;-33.888;151.150;2023-05-14T08:28:48;5.85;;;3.35;;
44046;SDS011;29713;-33.888;151.150;2023-05-14T08:31:15;7.82;;;3.58;;
44046;SDS011;29713;-33.888;151.150;2023-05-14T08:33:42;7.00;;;3.60;;
44046;SDS011;29713;-33.888;151.150;2023-05-14T08:36:10;13.35;;;7.47;;
44046;SDS011;29713;-33.888;151.150;2023-05-14T08:38:37;10.82;;;7.38;;
44046;SDS011;29713;-33.888;151.150;2023-05-14T08:41:05;7.65;;;3.47;;
44046;SDS011;29713;-33.888;151.150;2023-05-14T08:43:36;3.80;;;2.10;;
44046;SDS011;29713;-33.888;151.150;2023-05-14T08:46:07;4.35;;;2.17;;
44046;SDS011;29713;-33.888;151.150;2023-05-14T08:48:38;2.75;;;1.30;;
44046;SDS011;29713;-33.888;151.150;2023-05-14T08:51:07;5.47;;;1.40;;
44046;SDS011;29713;-33.888;151.150;2023-05-14T08:53:35;1.95;;;1.00;;
44046;SDS011;29713;-33.888;151.150;2023-05-14T08:56:05;2.20;;;0.80;;
44046;SDS011;29713;-33.888;151.150;2023-05-14T08:58:33;2.22;;;1.13;;
44046;SDS011;29713;-33.888;151.150;2023-05-14T09:01:01;1.85;;;1.20;;
44046;SDS011;29713;-33.888;151.150;2023-05-14T09:03:28;2.13;;;1.25;;
44046;SDS011;29713;-33.888;151.150;2023-05-14T09:05:56;2.47;;;1.20;;
44046;SDS011;29713;-33.888;151.150;2023-05-14T09:08:24;3.67;;;1.20;;
44046;SDS011;29713;-33.888;151.150;2023-05-14T09:10:51;1.90;;;1.25;;
44046;SDS011;29713;-33.888;151.150;2023-05-14T09:13:18;3.00;;;1.40;;
44046;SDS011;29713;-33.888;151.150;2023-05-14T09:15:46;2.20;;;1.30;;
44046;SDS011;29713;-33.888;151.150;2023-05-14T09:18:15;3.10;;;1.50;;
44046;SDS011;29713;-33.888;151.150;2023-05-14T09:20:43;1.67;;;1.42;;
44046;SDS011;29713;-33.888;151.150;2023-05-14T09:23:11;2.45;;;1.50;;
44046;SDS011;29713;-33.888;151.150;2023-05-14T09:25:39;3.30;;;1.70;;
44046;SDS011;29713;-33.888;151.150;2023-05-14T09:28:07;3.03;;;1.70;;
44046;SDS011;29713;-33.888;151.150;2023-05-14T09:30:35;3.83;;;2.10;;
44046;SDS011;29713;-33.888;151.150;2023-05-14T09:33:02;5.85;;;1.95;;
44046;SDS011;29713;-33.888;151.150;2023-05-14T09:35:33;3.20;;;1.85;;
44046;SDS011;29713;-33.888;151.150;2023-05-14T09:38:02;2.53;;;1.73;;
44046;SDS011;29713;-33.888;151.150;2023-05-14T09:40:30;4.97;;;2.20;;
44046;SDS011;29713;-33.888;151.150;2023-05-14T09:42:57;3.53;;;2.38;;
44046;SDS011;29713;-33.888;151.150;2023-05-14T09:45:26;4.03;;;2.22;;
44046;SDS011;29713;-33.888;151.150;2023-05-14T09:47:54;4.68;;;2.50;;
44046;SDS011;29713;-33.888;151.150;2023-05-14T09:50:24;4.65;;;1.90;;
44046;SDS011;29713;-33.888;151.150;2023-05-14T09:52:53;6.78;;;4.18;;
44046;SDS011;29713;-33.888;151.150;2023-05-14T09:55:21;7.68;;;5.07;;
44046;SDS011;29713;-33.888;151.150;2023-05-14T09:57:48;7.60;;;4.38;;
44046;SDS011;29713;-33.888;151.150;2023-05-14T10:00:16;5.72;;;3.20;;
44046;SDS011;29713;-33.888;151.150;2023-05-14T10:02:43;5.03;;;3.33;;
44046;SDS011;29713;-33.888;151.150;2023-05-14T10:05:12;6.97;;;3.42;;
44046;SDS011;29713;-33.888;151.150;2023-05-14T10:07:45;5.18;;;3.10;;
44046;SDS011;29713;-33.888;151.150;2023-05-14T10:10:15;5.25;;;3.47;;
44046;SDS011;29713;-33.888;151.150;2023-05-14T10:12:48;6.00;;;3.20;;
44046;SDS011;29713;-33.888;151.150;2023-05-14T10:15:23;7.45;;;3.92;;
44046;SDS011;29713;-33.888;151.150;2023-05-14T10:18:16;6.88;;;3.90;;
44046;SDS011;29713;-33.888;151.150;2023-05-14T10:20:47;6.90;;;3.50;;
44046;SDS011;29713;-33.888;151.150;2023-05-14T10:23:29;6.88;;;3.33;;
44046;SDS011;29713;-33.888;151.150;2023-05-14T10:25:57;4.50;;;3.30;;
44046;SDS011;29713;-33.888;151.150;2023-05-14T10:28:25;6.28;;;3.90;;
44046;SDS011;29713;-33.888;151.150;2023-05-14T10:30:53;6.03;;;3.70;;
44046;SDS011;29713;-33.888;151.150;2023-05-14T10:33:20;7.18;;;4.05;;
44046;SDS011;29713;-33.888;151.150;2023-05-14T10:36:02;8.88;;;3.78;;
44046;SDS011;29713;-33.888;151.150;2023-05-14T10:38:34;7.35;;;3.78;;
44046;SDS011;29713;-33.888;151.150;2023-05-14T10:41:14;6.38;;;4.22;;
44046;SDS011;29713;-33.888;151.150;2023-05-14T10:43:42;5.43;;;3.58;;
44046;SDS011;29713;-33.888;151.150;2023-05-14T10:46:11;6.68;;;3.90;;
44046;SDS011;29713;-33.888;151.150;2023-05-14T10:48:42;5.93;;;3.83;;
44046;SDS011;29713;-33.888;151.150;2023-05-14T10:51:10;5.88;;;4.00;;
44046;SDS011;29713;-33.888;151.150;2023-05-14T10:53:39;8.25;;;3.80;;
44046;SDS011;29713;-33.888;151.150;2023-05-14T10:56:08;5.22;;;3.80;;
44046;SDS011;29713;-33.888;151.150;2023-05-14T10:58:37;7.45;;;4.18;;
44046;SDS011;29713;-33.888;151.150;2023-05-14T11:01:07;8.20;;;4.10;;
44046;SDS011;29713;-33.888;151.150;2023-05-14T11:03:39;7.05;;;3.70;;
44046;SDS011;29713;-33.888;151.150;2023-05-14T11:06:07;7.10;;;4.10;;
44046;SDS011;29713;-33.888;151.150;2023-05-14T11:08:36;8.57;;;4.32;;
44046;SDS011;29713;-33.888;151.150;2023-05-14T11:11:04;6.18;;;3.88;;
44046;SDS011;29713;-33.888;151.150;2023-05-14T11:13:32;6.25;;;3.97;;
44046;SDS011;29713;-33.888;151.150;2023-05-14T11:16:01;5.50;;;3.85;;
44046;SDS011;29713;-33.888;151.150;2023-05-14T11:18:29;6.63;;;3.63;;
44046;SDS011;29713;-33.888;151.150;2023-05-14T11:21:06;6.10;;;3.90;;
44046;SDS011;29713;-33.888;151.150;2023-05-14T11:23:33;7.88;;;3.80;;
44046;SDS011;29713;-33.888;151.150;2023-05-14T11:26:01;6.45;;;4.15;;
44046;SDS011;29713;-33.888;151.150;2023-05-14T11:28:28;6.45;;;3.40;;
44046;SDS011;29713;-33.888;151.150;2023-05-14T11:30:56;7.22;;;3.85;;
44046;SDS011;29713;-33.888;151.150;2023-05-14T11:33:23;5.85;;;3.50;;
44046;SDS011;29713;-33.888;151.150;2023-05-14T11:35:53;7.95;;;3.88;;
44046;SDS011;29713;-33.888;151.150;2023-05-14T11:38:21;5.57;;;3.83;;
44046;SDS011;29713;-33.888;151.150;2023-05-14T11:40:51;6.20;;;4.30;;
44046;SDS011;29713;-33.888;151.150;2023-05-14T11:43:24;7.32;;;4.95;;
44046;SDS011;29713;-33.888;151.150;2023-05-14T11:45:55;9.30;;;4.80;;
44046;SDS011;29713;-33.888;151.150;2023-05-14T11:48:22;8.25;;;4.97;;
44046;SDS011;29713;-33.888;151.150;2023-05-14T11:50:50;5.38;;;4.00;;
44046;SDS011;29713;-33.888;151.150;2023-05-14T11:53:18;7.05;;;4.57;;
44046;SDS011;29713;-33.888;151.150;2023-05-14T11:55:55;5.97;;;4.00;;
44046;SDS011;29713;-33.888;151.150;2023-05-14T11:58:23;5.60;;;4.20;;
44046;SDS011;29713;-33.888;151.150;2023-05-14T12:00:54;5.40;;;4.03;;
44046;SDS011;29713;-33.888;151.150;2023-05-14T12:03:21;7.20;;;4.00;;
44046;SDS011;29713;-33.888;151.150;2023-05-14T12:05:54;7.60;;;4.10;;
44046;SDS011;29713;-33.888;151.150;2023-05-14T12:08:26;6.67;;;4.33;;
44046;SDS011;29713;-33.888;151.150;2023-05-14T12:10:55;8.47;;;4.60;;
44046;SDS011;29713;-33.888;151.150;2023-05-14T12:13:28;7.23;;;4.50;;
44046;SDS011;29713;-33.888;151.150;2023-05-14T12:15:57;8.73;;;4.80;;
44046;SDS011;29713;-33.888;151.150;2023-05-14T12:18:27;4.70;;;3.73;;
44046;SDS011;29713;-33.888;151.150;2023-05-14T12:21:05;7.20;;;4.80;;
44046;SDS011;29713;-33.888;151.150;2023-05-14T12:23:37;6.57;;;4.43;;
44046;SDS011;29713;-33.888;151.150;2023-05-14T12:26:05;5.70;;;4.37;;
44046;SDS011;29713;-33.888;151.150;2023-05-14T12:28:34;6.90;;;4.60;;
44046;SDS011;29713;-33.888;151.150;2023-05-14T12:31:07;6.83;;;4.60;;
44046;SDS011;29713;-33.888;151.150;2023-05-14T12:33:34;4.63;;;4.10;;
44046;SDS011;29713;-33.888;151.150;2023-05-14T12:36:02;7.27;;;4.53;;
44046;SDS011;29713;-33.888;151.150;2023-05-14T12:38:30;7.17;;;4.43;;
44046;SDS011;29713;-33.888;151.150;2023-05-14T12:41:10;6.13;;;4.43;;
44046;SDS011;29713;-33.888;151.150;2023-05-14T12:43:46;6.07;;;3.93;;
44046;SDS011;29713;-33.888;151.150;2023-05-14T12:46:17;7.47;;;4.53;;
44046;SDS011;29713;-33.888;151.150;2023-05-14T12:48:50;7.10;;;4.30;;
44046;SDS011;29713;-33.888;151.150;2023-05-14T12:51:22;7.87;;;4.63;;
44046;SDS011;29713;-33.888;151.150;2023-05-14T12:53:49;7.73;;;4.57;;
44046;SDS011;29713;-33.888;151.150;2023-05-14T12:56:18;8.03;;;4.77;;
44046;SDS011;29713;-33.888;151.150;2023-05-14T12:58:52;5.27;;;4.00;;
44046;SDS011;29713;-33.888;151.150;2023-05-14T13:01:21;6.97;;;4.87;;
44046;SDS011;29713;-33.888;151.150;2023-05-14T13:03:51;8.73;;;5.27;;
44046;SDS011;29713;-33.888;151.150;2023-05-14T13:06:20;7.27;;;4.90;;
44046;SDS011;29713;-33.888;151.150;2023-05-14T13:08:47;7.43;;;5.20;;
44046;SDS011;29713;-33.888;151.150;2023-05-14T13:11:14;7.93;;;5.43;;
44046;SDS011;29713;-33.888;151.150;2023-05-14T13:13:42;7.37;;;5.40;;
44046;SDS011;29713;-33.888;151.150;2023-05-14T13:16:09;8.73;;;5.30;;
44046;SDS011;29713;-33.888;151.150;2023-05-14T13:18:41;5.90;;;4.77;;
44046;SDS011;29713;-33.888;151.150;2023-05-14T13:21:08;8.90;;;5.53;;
44046;SDS011;29713;-33.888;151.150;2023-05-14T13:23:37;7.10;;;4.60;;
44046;SDS011;29713;-33.888;151.150;2023-05-14T13:26:04;7.67;;;5.60;;
44046;SDS011;29713;-33.888;151.150;2023-05-14T13:28:32;12.10;;;5.80;;
44046;SDS011;29713;-33.888;151.150;2023-05-14T13:31:17;8.97;;;5.80;;
44046;SDS011;29713;-33.888;151.150;2023-05-14T13:33:44;7.93;;;5.50;;
44046;SDS011;29713;-33.888;151.150;2023-05-14T13:36:12;9.80;;;5.67;;
44046;SDS011;29713;-33.888;151.150;2023-05-14T13:38:40;7.73;;;5.77;;
44046;SDS011;29713;-33.888;151.150;2023-05-14T13:41:10;10.13;;;6.57;;
44046;SDS011;29713;-33.888;151.150;2023-05-14T13:43:37;11.53;;;6.30;;
44046;SDS011;29713;-33.888;151.150;2023-05-14T13:46:05;9.13;;;6.53;;
44046;SDS011;29713;-33.888;151.150;2023-05-14T13:48:32;8.70;;;6.03;;
44046;SDS011;29713;-33.888;151.150;2023-05-14T13:51:01;9.87;;;6.37;;
44046;SDS011;29713;-33.888;151.150;2023-05-14T13:53:29;7.30;;;5.50;;
44046;SDS011;29713;-33.888;151.150;2023-05-14T13:55:56;8.10;;;6.20;;
44046;SDS011;29713;-33.888;151.150;2023-05-14T13:58:26;9.47;;;6.53;;
44046;SDS011;29713;-33.888;151.150;2023-05-14T14:00:53;9.83;;;5.67;;
44046;SDS011;29713;-33.888;151.150;2023-05-14T14:03:21;8.43;;;6.17;;
44046;SDS011;29713;-33.888;151.150;2023-05-14T14:05:48;11.77;;;6.03;;
44046;SDS011;29713;-33.888;151.150;2023-05-14T14:08:17;8.17;;;5.60;;
44046;SDS011;29713;-33.888;151.150;2023-05-14T14:10:44;9.73;;;5.97;;
44046;SDS011;29713;-33.888;151.150;2023-05-14T14:13:12;8.30;;;5.60;;
44046;SDS011;29713;-33.888;151.150;2023-05-14T14:15:39;9.43;;;5.50;;
44046;SDS011;29713;-33.888;151.150;2023-05-14T14:18:08;9.30;;;5.80;;
44046;SDS011;29713;-33.888;151.150;2023-05-14T14:20:35;8.17;;;5.63;;
44046;SDS011;29713;-33.888;151.150;2023-05-14T14:23:02;8.30;;;5.37;;
44046;SDS011;29713;-33.888;151.150;2023-05-14T14:25:29;8.47;;;5.57;;
44046;SDS011;29713;-33.888;151.150;2023-05-14T14:27:57;8.67;;;6.30;;